Willow Oak, Texas
Current Conditions -  °F | °C
As of 5:35 AM on Saturday 22 Nov 2014 (Local Time) from KOSA Reporting Station
Broken Clouds Broken Clouds  
Wind Chill: 56°   Ceiling: 11000
Heat Index: 56°   Visibility: 10mi
Dew Point: 53°   Wind: 10mph
Humidity: 92%   Direction: 130°SE
Pressure: 30.13"   Gusts: NA
Location:  32.7353°N, 94.9492°W
Report Text: KOSA 221135Z AUTO 13009KT 10SM SCT085 BKN110 13/12 A3013 RMK AO1 T01310118
Loading
Personal Weather Stations






























Interactive Weather Map New forecast layout! Learn more

10-Day Weather Forecast

Advertisements
Track Severe Weather on mobile